createdAt,value
2023-06-02T00:01:33.705Z,85.96
2023-06-02T00:04:04.143Z,86.75
2023-06-02T00:06:35.476Z,85.92
2023-06-02T00:09:06.467Z,85.62
2023-06-02T00:11:39.797Z,84.76
2023-06-02T00:14:08.714Z,84.52
2023-06-02T00:16:47.561Z,86.43
2023-06-02T00:19:16.401Z,85.85
2023-06-02T00:21:47.514Z,87.41
2023-06-02T00:24:16.545Z,85.93
2023-06-02T00:26:44.945Z,85.52
2023-06-02T00:29:13.337Z,85.86
2023-06-02T00:31:41.780Z,86.19
2023-06-02T00:34:10.179Z,86.82
2023-06-02T00:36:38.765Z,86.06
2023-06-02T00:39:07.560Z,86.69
2023-06-02T00:41:35.893Z,87.00
2023-06-02T00:44:04.812Z,86.27
2023-06-02T00:46:33.241Z,86.82
2023-06-02T00:49:01.623Z,86.22
2023-06-02T00:51:30.685Z,85.67
2023-06-02T00:53:59.157Z,85.70
2023-06-02T00:56:27.461Z,85.03
2023-06-02T00:58:55.995Z,85.94
2023-06-02T01:01:24.549Z,86.59
2023-06-02T01:03:53.259Z,85.89
2023-06-02T01:06:35.999Z,85.43
2023-06-02T01:09:06.734Z,86.23
2023-06-02T01:11:35.730Z,86.55
2023-06-02T01:14:04.489Z,86.67
2023-06-02T01:16:34.099Z,87.88
2023-06-02T01:19:03.037Z,87.07
2023-06-02T01:21:38.728Z,88.06
2023-06-02T01:24:07.641Z,87.63
2023-06-02T01:26:35.925Z,86.42
2023-06-02T01:29:05.568Z,86.25
2023-06-02T01:31:41.405Z,85.97
2023-06-02T01:34:22.685Z,86.51
2023-06-02T01:36:56.877Z,87.49
2023-06-02T01:39:28.843Z,87.10
2023-06-02T01:42:01.686Z,87.45
2023-06-02T01:44:31.899Z,87.94
2023-06-02T01:47:01.380Z,88.32
2023-06-02T01:49:30.246Z,88.30
2023-06-02T01:51:58.509Z,88.03
2023-06-02T01:54:26.845Z,88.12
2023-06-02T01:56:56.245Z,87.25
2023-06-02T01:59:24.688Z,87.47
2023-06-02T02:01:52.987Z,88.19
2023-06-02T02:04:21.541Z,86.96
2023-06-02T02:06:50.916Z,87.11
2023-06-02T02:09:19.569Z,87.64
2023-06-02T02:11:47.846Z,88.06
2023-06-02T02:14:16.072Z,87.67
2023-06-02T02:16:45.854Z,87.77
2023-06-02T02:19:14.240Z,88.37
2023-06-02T02:21:42.704Z,88.90
2023-06-02T02:24:11.057Z,88.23
2023-06-02T02:26:40.030Z,87.34
2023-06-02T02:29:08.250Z,88.61
2023-06-02T02:31:36.837Z,88.44
2023-06-02T02:34:05.045Z,86.85
2023-06-02T02:36:34.628Z,86.89
2023-06-02T02:39:04.557Z,88.17
2023-06-02T02:41:32.828Z,88.30
2023-06-02T02:44:01.950Z,89.64
2023-06-02T02:46:30.668Z,89.25
2023-06-02T02:48:58.997Z,88.22
2023-06-02T02:51:27.468Z,87.49
2023-06-02T02:53:55.877Z,87.00
2023-06-02T02:56:24.295Z,86.85
2023-06-02T02:58:52.657Z,86.64
2023-06-02T03:01:20.890Z,87.14
2023-06-02T03:03:49.434Z,87.43
2023-06-02T03:06:19.726Z,88.39
2023-06-02T03:08:48.935Z,89.09
2023-06-02T03:11:17.228Z,89.39
2023-06-02T03:13:45.531Z,89.47
2023-06-02T03:16:14.532Z,89.25
2023-06-02T03:18:42.913Z,88.58
2023-06-02T03:21:11.497Z,88.31
2023-06-02T03:23:41.661Z,88.84
2023-06-02T03:26:12.943Z,89.15
2023-06-02T03:28:44.026Z,89.17
2023-06-02T03:31:13.072Z,89.22
2023-06-02T03:33:41.621Z,89.57
2023-06-02T03:36:10.866Z,89.78
2023-06-02T03:38:40.718Z,89.85
2023-06-02T03:41:09.181Z,89.96
2023-06-02T03:43:37.514Z,90.25
2023-06-02T03:46:06.139Z,89.98
2023-06-02T03:48:34.752Z,89.93
2023-06-02T03:51:04.614Z,89.82
2023-06-02T03:53:33.361Z,90.06
2023-06-02T03:56:01.896Z,90.95
2023-06-02T03:58:31.121Z,91.00
2023-06-02T04:00:59.595Z,91.03
2023-06-02T04:03:30.423Z,91.50
2023-06-02T04:05:58.911Z,91.31
2023-06-02T04:08:27.763Z,90.46
2023-06-02T04:10:56.285Z,89.97
2023-06-02T04:13:24.630Z,90.91
2023-06-02T04:15:52.907Z,90.34
2023-06-02T04:18:21.854Z,90.52
2023-06-02T04:20:50.234Z,90.38
2023-06-02T04:23:19.000Z,90.80
2023-06-02T04:25:47.567Z,91.58
2023-06-02T04:28:17.035Z,91.82
2023-06-02T04:30:45.331Z,92.65
2023-06-02T04:33:14.419Z,91.57
2023-06-02T04:35:43.286Z,91.21
2023-06-02T04:38:13.077Z,91.25
2023-06-02T04:40:43.267Z,90.91
2023-06-02T04:43:12.571Z,90.47
2023-06-02T04:45:48.436Z,89.74
2023-06-02T04:48:20.050Z,88.81
2023-06-02T04:50:48.348Z,88.59
2023-06-02T04:53:16.705Z,88.39
2023-06-02T04:55:46.436Z,88.04
2023-06-02T04:58:16.192Z,87.56
2023-06-02T05:00:45.001Z,87.28
2023-06-02T05:03:14.365Z,86.89
2023-06-02T05:05:42.835Z,87.26
2023-06-02T05:08:12.646Z,85.86
2023-06-02T05:10:41.384Z,86.05
2023-06-02T05:13:09.837Z,84.70
2023-06-02T05:15:39.804Z,82.41
2023-06-02T05:18:08.598Z,81.35
2023-06-02T05:20:37.290Z,80.23
2023-06-02T05:23:06.114Z,78.69
2023-06-02T05:25:34.505Z,74.97
2023-06-02T05:28:03.007Z,72.74
2023-06-02T05:30:31.901Z,71.59
2023-06-02T05:33:00.278Z,72.45
2023-06-02T05:35:29.545Z,76.32
2023-06-02T05:37:58.863Z,74.28
2023-06-02T05:40:27.151Z,66.58
2023-06-02T05:42:55.619Z,68.03
2023-06-02T05:45:24.490Z,63.67
2023-06-02T05:47:53.642Z,63.29
2023-06-02T05:50:23.831Z,60.34
2023-06-02T05:52:52.235Z,62.01
2023-06-02T05:55:20.533Z,59.01
2023-06-02T05:57:50.320Z,58.47
2023-06-02T06:00:19.223Z,56.08
2023-06-02T06:02:48.774Z,58.82
2023-06-02T06:05:20.188Z,53.65
2023-06-02T06:07:49.111Z,51.58
2023-06-02T06:10:17.776Z,49.83
2023-06-02T06:12:46.419Z,51.02
2023-06-02T06:15:16.666Z,50.25
2023-06-02T06:17:53.083Z,49.41
2023-06-02T06:20:22.145Z,47.75
2023-06-02T06:22:51.057Z,48.25
2023-06-02T06:25:21.539Z,48.52
2023-06-02T06:27:51.718Z,46.84
2023-06-02T06:30:23.306Z,45.89
2023-06-02T06:32:55.995Z,44.89
2023-06-02T06:35:25.360Z,48.42
2023-06-02T06:37:54.359Z,46.18
2023-06-02T06:40:22.619Z,43.62
2023-06-02T06:42:51.017Z,42.49
2023-06-02T06:45:25.377Z,43.99
2023-06-02T06:47:53.957Z,43.70
2023-06-02T06:50:23.252Z,45.40
2023-06-02T06:52:51.603Z,42.45
2023-06-02T06:55:19.930Z,42.45
2023-06-02T06:57:48.293Z,42.67
2023-06-02T07:00:18.109Z,39.88
2023-06-02T07:02:49.490Z,38.60
2023-06-02T07:05:18.437Z,39.61
2023-06-02T07:07:48.146Z,38.38
2023-06-02T07:10:16.598Z,38.95
2023-06-02T07:12:44.838Z,38.96
2023-06-02T07:15:13.406Z,39.38
2023-06-02T07:17:42.811Z,39.18
2023-06-02T07:20:12.824Z,37.67
2023-06-02T07:22:41.560Z,38.46
2023-06-02T07:25:10.228Z,37.80
2023-06-02T07:27:38.785Z,35.57
2023-06-02T07:30:08.464Z,37.97
2023-06-02T07:32:36.957Z,38.00
2023-06-02T07:35:05.882Z,37.31
2023-06-02T07:37:34.088Z,37.93
2023-06-02T07:40:02.380Z,37.92
2023-06-02T07:42:30.780Z,35.65
2023-06-02T07:44:59.056Z,36.12
2023-06-02T07:47:27.553Z,35.45
2023-06-02T07:49:55.879Z,31.14
2023-06-02T07:52:24.889Z,33.78
2023-06-02T07:54:53.176Z,33.51
2023-06-02T07:57:21.502Z,33.09
2023-06-02T07:59:50.207Z,33.18
2023-06-02T08:02:18.598Z,32.00
2023-06-02T08:04:47.081Z,30.79
2023-06-02T08:07:15.953Z,31.65
2023-06-02T08:09:44.282Z,32.57
2023-06-02T08:12:12.558Z,32.03
2023-06-02T08:14:41.563Z,31.68
2023-06-02T08:17:12.287Z,30.65
2023-06-02T08:19:40.574Z,31.90
2023-06-02T08:22:11.112Z,30.08
2023-06-02T08:24:39.588Z,31.17
2023-06-02T08:27:09.680Z,30.53
2023-06-02T08:29:37.997Z,31.17
2023-06-02T08:32:08.199Z,31.86
2023-06-02T08:34:37.861Z,31.80
2023-06-02T08:37:06.496Z,31.96
2023-06-02T08:39:36.303Z,32.32
2023-06-02T08:42:06.592Z,32.73
2023-06-02T08:44:34.741Z,33.97
2023-06-02T08:47:04.534Z,33.13
2023-06-02T08:49:36.728Z,33.87
2023-06-02T08:52:11.404Z,34.09
2023-06-02T08:54:41.453Z,34.98
2023-06-02T08:57:17.704Z,35.43
2023-06-02T08:59:47.385Z,34.86
2023-06-02T09:02:17.422Z,34.06
2023-06-02T09:04:45.907Z,32.90
2023-06-02T09:07:14.187Z,32.53
2023-06-02T09:09:44.505Z,32.34
2023-06-02T09:12:14.764Z,31.99
2023-06-02T09:14:43.109Z,31.64
2023-06-02T09:17:31.363Z,31.92
2023-06-02T09:20:02.576Z,31.86
2023-06-02T09:22:31.741Z,32.09
2023-06-02T09:25:00.312Z,31.96
2023-06-02T09:27:29.488Z,33.58
2023-06-02T09:30:04.263Z,34.14
2023-06-02T09:32:38.230Z,34.28
2023-06-02T09:35:08.464Z,35.53
2023-06-02T09:37:58.566Z,36.03
2023-06-02T09:40:28.871Z,36.27
2023-06-02T09:42:57.347Z,35.74
2023-06-02T09:45:25.924Z,35.99
2023-06-02T09:47:54.736Z,36.40
2023-06-02T09:50:37.887Z,36.28
2023-06-02T09:53:12.939Z,38.30
2023-06-02T09:55:41.592Z,37.73
2023-06-02T09:58:09.989Z,36.98
2023-06-02T10:00:38.363Z,37.80
2023-06-02T10:03:08.489Z,38.58
2023-06-02T10:05:40.654Z,39.64
2023-06-02T10:08:09.002Z,39.59
2023-06-02T10:11:01.905Z,40.15
2023-06-02T10:13:48.368Z,40.05
2023-06-02T10:16:38.830Z,40.92
2023-06-02T10:19:27.338Z,40.15
2023-06-02T10:22:25.663Z,39.74
2023-06-02T10:25:13.488Z,39.80
2023-06-02T10:27:45.302Z,40.05
2023-06-02T10:30:20.946Z,40.27
2023-06-02T10:32:50.971Z,40.77
2023-06-02T10:35:20.755Z,41.91
2023-06-02T10:38:24.926Z,42.18
2023-06-02T10:40:53.446Z,45.23
2023-06-02T10:43:22.568Z,44.07
2023-06-02T10:45:51.447Z,44.22
2023-06-02T10:48:40.905Z,46.01
2023-06-02T10:51:10.866Z,46.10
2023-06-02T10:54:03.437Z,44.88
2023-06-02T10:56:41.484Z,44.48
2023-06-02T10:59:11.232Z,43.27
2023-06-02T11:01:47.820Z,41.05
2023-06-02T11:04:31.377Z,41.47
2023-06-02T11:07:36.032Z,43.01
2023-06-02T11:10:06.230Z,40.93
2023-06-02T11:13:03.968Z,39.84
2023-06-02T11:15:32.315Z,39.40
2023-06-02T11:18:03.156Z,39.19
2023-06-02T11:20:35.950Z,39.52
2023-06-02T11:23:08.166Z,38.52
2023-06-02T11:25:36.732Z,39.19
2023-06-02T11:28:05.099Z,39.52
2023-06-02T11:30:33.361Z,39.01
2023-06-02T11:33:01.705Z,39.00
2023-06-02T11:35:30.266Z,38.99
2023-06-02T11:38:09.433Z,39.18
2023-06-02T11:40:38.962Z,39.42
2023-06-02T11:43:07.353Z,39.91
2023-06-02T11:45:37.751Z,39.37
2023-06-02T11:48:12.591Z,39.50
2023-06-02T11:50:41.315Z,40.07
2023-06-02T11:53:14.669Z,40.34
2023-06-02T11:55:43.526Z,41.56
2023-06-02T11:58:22.030Z,41.67
2023-06-02T12:00:52.313Z,41.68
2023-06-02T12:03:21.207Z,42.11
2023-06-02T12:05:51.145Z,41.93
2023-06-02T12:08:23.960Z,42.59
2023-06-02T12:10:53.360Z,42.42
2023-06-02T12:13:32.792Z,42.07
2023-06-02T12:16:21.801Z,42.44
2023-06-02T12:18:50.593Z,42.92
2023-06-02T12:21:27.883Z,43.02
2023-06-02T12:23:58.847Z,43.35
2023-06-02T12:26:28.202Z,43.44
2023-06-02T12:28:57.849Z,44.57
2023-06-02T12:31:26.226Z,44.08
2023-06-02T12:33:54.840Z,44.82
2023-06-02T12:36:23.573Z,44.02
2023-06-02T12:38:51.943Z,43.61
2023-06-02T12:41:20.287Z,43.82
2023-06-02T12:43:48.698Z,43.87
2023-06-02T12:46:17.967Z,42.94
2023-06-02T12:48:46.788Z,42.35
2023-06-02T12:51:16.605Z,42.04
2023-06-02T12:53:45.027Z,41.20
2023-06-02T12:56:15.064Z,41.22
2023-06-02T12:58:44.034Z,39.44
2023-06-02T13:01:12.447Z,39.97
2023-06-02T13:03:43.668Z,39.88
2023-06-02T13:06:13.385Z,39.42
2023-06-02T13:08:42.059Z,38.31
2023-06-02T13:11:10.903Z,39.63
2023-06-02T13:13:39.777Z,39.49
2023-06-02T13:16:09.215Z,39.70
2023-06-02T13:18:38.033Z,40.35
2023-06-02T13:21:06.477Z,39.91
2023-06-02T13:23:35.755Z,39.74
2023-06-02T13:26:04.660Z,38.58
2023-06-02T13:28:35.309Z,37.35
2023-06-02T13:31:05.044Z,37.83
2023-06-02T13:33:35.247Z,38.74
2023-06-02T13:36:03.975Z,37.77
2023-06-02T13:38:32.451Z,37.52
2023-06-02T13:41:00.682Z,38.84
2023-06-02T13:43:28.927Z,38.63
2023-06-02T13:45:57.416Z,39.29
2023-06-02T13:48:25.872Z,39.38
2023-06-02T13:50:54.322Z,39.98
2023-06-02T13:53:22.666Z,39.35
2023-06-02T13:55:50.989Z,40.07
2023-06-02T13:58:19.480Z,41.01
2023-06-02T14:00:47.966Z,39.45
2023-06-02T14:03:16.346Z,40.35
2023-06-02T14:05:49.084Z,39.38
2023-06-02T14:08:19.798Z,38.75
2023-06-02T14:10:49.222Z,38.02
2023-06-02T14:13:17.734Z,37.74
2023-06-02T14:15:46.155Z,38.03
2023-06-02T14:18:14.471Z,38.30
2023-06-02T14:20:42.922Z,39.27
2023-06-02T14:23:11.275Z,40.15
2023-06-02T14:25:39.695Z,39.76
2023-06-02T14:28:07.944Z,39.50
2023-06-02T14:30:36.427Z,39.88
2023-06-02T14:33:04.834Z,40.12
2023-06-02T14:35:33.371Z,40.50
2023-06-02T14:38:01.744Z,40.41
2023-06-02T14:40:30.008Z,40.29
2023-06-02T14:42:58.330Z,39.65
2023-06-02T14:45:26.667Z,39.03
2023-06-02T14:47:56.522Z,38.38
2023-06-02T14:50:25.053Z,38.18
2023-06-02T14:52:55.140Z,39.03
2023-06-02T14:55:23.455Z,39.14
2023-06-02T14:57:52.155Z,39.55
2023-06-02T15:00:20.423Z,37.97
2023-06-02T15:02:48.904Z,37.20
2023-06-02T15:05:17.793Z,38.46
2023-06-02T15:07:46.036Z,38.22
2023-06-02T15:10:14.388Z,38.21
2023-06-02T15:12:42.870Z,38.62
2023-06-02T15:15:11.444Z,38.21
2023-06-02T15:17:39.815Z,37.69
2023-06-02T15:20:08.694Z,37.53
2023-06-02T15:22:37.006Z,37.75
2023-06-02T15:25:05.899Z,37.78
2023-06-02T15:27:36.453Z,38.08
2023-06-02T15:30:05.508Z,37.97
2023-06-02T15:32:34.007Z,37.97
2023-06-02T15:35:04.076Z,38.01
2023-06-02T15:37:32.308Z,37.76
2023-06-02T15:40:00.781Z,37.48
2023-06-02T15:42:29.098Z,37.99
2023-06-02T15:44:57.344Z,38.54
2023-06-02T15:47:26.321Z,39.14
2023-06-02T15:49:54.608Z,39.79
2023-06-02T15:52:23.124Z,40.80
2023-06-02T15:54:51.573Z,41.13
2023-06-02T15:57:20.207Z,41.97
2023-06-02T15:59:48.553Z,42.47
2023-06-02T16:02:17.051Z,43.55
2023-06-02T16:04:45.492Z,44.24
2023-06-02T16:07:14.081Z,44.36
2023-06-02T16:09:42.643Z,44.69
2023-06-02T16:12:11.072Z,44.48
2023-06-02T16:14:39.649Z,45.05
2023-06-02T16:17:07.974Z,46.38
2023-06-02T16:19:36.364Z,46.35
2023-06-02T16:22:04.867Z,46.28
2023-06-02T16:24:33.452Z,46.64
2023-06-02T16:27:01.774Z,47.23
2023-06-02T16:29:30.290Z,48.42
2023-06-02T16:32:00.138Z,47.50
2023-06-02T16:34:28.678Z,48.88
2023-06-02T16:36:56.876Z,49.78
2023-06-02T16:39:25.547Z,49.83
2023-06-02T16:41:53.985Z,49.24
2023-06-02T16:44:24.410Z,49.34
2023-06-02T16:46:54.181Z,49.68
2023-06-02T16:49:24.586Z,49.99
2023-06-02T16:51:53.290Z,52.00
2023-06-02T16:54:21.623Z,51.90
2023-06-02T16:56:50.233Z,52.87
2023-06-02T16:59:18.538Z,53.72
2023-06-02T17:01:47.860Z,52.33
2023-06-02T17:04:17.940Z,52.50
2023-06-02T17:06:46.396Z,51.72
2023-06-02T17:09:17.080Z,52.07
2023-06-02T17:11:46.537Z,53.61
2023-06-02T17:14:16.409Z,53.67
2023-06-02T17:16:44.850Z,52.59
2023-06-02T17:19:13.192Z,52.28
2023-06-02T17:21:41.589Z,52.94
2023-06-02T17:24:12.315Z,53.12
2023-06-02T17:26:43.482Z,52.58
2023-06-02T17:29:14.270Z,53.36
2023-06-02T17:31:42.555Z,53.15
2023-06-02T17:34:11.002Z,53.68
2023-06-02T17:36:39.290Z,53.47
2023-06-02T17:39:07.677Z,54.21
2023-06-02T17:41:36.034Z,54.46
2023-06-02T17:44:04.708Z,54.84
2023-06-02T17:46:33.771Z,57.38
2023-06-02T17:49:02.163Z,58.00
2023-06-02T17:51:30.639Z,56.99
2023-06-02T17:53:58.956Z,56.60
2023-06-02T17:56:28.078Z,56.58
2023-06-02T17:58:58.668Z,60.01
2023-06-02T18:01:27.209Z,60.75
2023-06-02T18:03:55.578Z,61.61
2023-06-02T18:06:23.885Z,60.37
2023-06-02T18:08:52.342Z,60.72
2023-06-02T18:11:21.197Z,61.17
2023-06-02T18:13:49.469Z,63.61
2023-06-02T18:16:17.791Z,64.44
2023-06-02T18:18:46.618Z,65.27
2023-06-02T18:21:14.894Z,65.06
2023-06-02T18:23:43.191Z,66.64
2023-06-02T18:26:11.897Z,66.33
2023-06-02T18:28:40.240Z,66.65
2023-06-02T18:31:08.556Z,67.27
2023-06-02T18:33:36.922Z,67.00
2023-06-02T18:36:05.236Z,68.34
2023-06-02T18:38:33.567Z,64.94
2023-06-02T18:41:02.321Z,66.42
2023-06-02T18:43:30.985Z,68.07
2023-06-02T18:45:59.446Z,68.63
2023-06-02T18:48:27.828Z,68.65
2023-06-02T18:50:56.527Z,69.63
2023-06-02T18:53:25.253Z,69.52
2023-06-02T18:55:53.655Z,68.77
2023-06-02T18:58:22.829Z,69.00
2023-06-02T19:00:51.182Z,69.85
2023-06-02T19:03:20.251Z,67.64
2023-06-02T19:05:49.694Z,68.57
2023-06-02T19:08:18.057Z,69.84
2023-06-02T19:10:47.113Z,70.95
2023-06-02T19:13:16.106Z,70.62
2023-06-02T19:15:44.736Z,71.19
2023-06-02T19:18:14.378Z,71.77
2023-06-02T19:20:42.869Z,71.41
2023-06-02T19:23:12.257Z,71.37
2023-06-02T19:25:40.684Z,70.66
2023-06-02T19:28:09.047Z,72.32
2023-06-02T19:30:37.538Z,73.84
2023-06-02T19:33:05.937Z,73.53
2023-06-02T19:35:37.091Z,71.38
2023-06-02T19:38:05.663Z,70.38
2023-06-02T19:40:34.209Z,71.94
2023-06-02T19:43:02.485Z,72.21
2023-06-02T19:45:30.844Z,72.06
2023-06-02T19:47:59.951Z,74.47
2023-06-02T19:50:28.394Z,75.69
2023-06-02T19:52:56.675Z,75.86
2023-06-02T19:55:26.807Z,75.08
2023-06-02T19:57:55.753Z,76.69
2023-06-02T20:00:24.194Z,77.42
2023-06-02T20:02:52.571Z,78.11
2023-06-02T20:05:22.818Z,77.67
2023-06-02T20:07:51.131Z,77.12
2023-06-02T20:10:19.491Z,76.10
2023-06-02T20:12:47.801Z,77.52
2023-06-02T20:15:16.119Z,78.36
2023-06-02T20:17:44.486Z,78.34
2023-06-02T20:20:14.339Z,76.36
2023-06-02T20:22:43.003Z,75.06
2023-06-02T20:25:11.825Z,77.38
2023-06-02T20:27:40.677Z,78.36
2023-06-02T20:30:09.378Z,79.63
2023-06-02T20:32:37.965Z,78.28
2023-06-02T20:35:07.581Z,78.87
2023-06-02T20:37:37.390Z,78.94
2023-06-02T20:40:07.304Z,79.12
2023-06-02T20:42:35.565Z,78.87
2023-06-02T20:45:04.189Z,78.89
2023-06-02T20:47:32.752Z,79.52
2023-06-02T20:50:01.121Z,78.12
2023-06-02T20:52:29.489Z,76.04
2023-06-02T20:54:57.783Z,75.87
2023-06-02T20:57:26.057Z,77.59
2023-06-02T20:59:54.347Z,76.69
2023-06-02T21:02:24.664Z,79.43
2023-06-02T21:04:53.054Z,78.82
2023-06-02T21:07:21.292Z,78.78
2023-06-02T21:09:49.595Z,78.48
2023-06-02T21:12:17.835Z,79.55
2023-06-02T21:14:46.081Z,80.99
2023-06-02T21:17:14.430Z,79.06
2023-06-02T21:19:42.812Z,80.07
2023-06-02T21:22:11.402Z,81.17
2023-06-02T21:24:39.736Z,82.00
2023-06-02T21:27:08.148Z,80.40
2023-06-02T21:29:36.782Z,79.61
2023-06-02T21:32:05.950Z,78.89
2023-06-02T21:34:34.263Z,79.38
2023-06-02T21:37:04.358Z,80.19
2023-06-02T21:39:32.943Z,80.70
2023-06-02T21:42:01.199Z,82.01
2023-06-02T21:44:29.584Z,82.31
2023-06-02T21:46:57.847Z,80.98
2023-06-02T21:49:26.177Z,79.50
2023-06-02T21:51:54.692Z,78.64
2023-06-02T21:54:22.908Z,79.63
2023-06-02T21:56:51.211Z,80.22
2023-06-02T21:59:19.556Z,81.36
2023-06-02T22:01:47.876Z,83.09
2023-06-02T22:04:16.128Z,83.29
2023-06-02T22:06:44.572Z,83.27
2023-06-02T22:09:12.810Z,82.92
2023-06-02T22:11:41.193Z,82.45
2023-06-02T22:14:09.391Z,84.03
2023-06-02T22:16:37.746Z,83.74
2023-06-02T22:19:07.567Z,83.06
2023-06-02T22:21:55.222Z,83.45
2023-06-02T22:24:28.380Z,83.27
2023-06-02T22:26:57.221Z,83.69
2023-06-02T22:29:25.604Z,83.87
2023-06-02T22:31:53.996Z,83.35
2023-06-02T22:34:22.484Z,82.81
2023-06-02T22:36:51.061Z,82.37
2023-06-02T22:39:19.339Z,82.32
2023-06-02T22:41:47.725Z,82.21
2023-06-02T22:44:16.348Z,83.30
2023-06-02T22:46:44.717Z,81.96
2023-06-02T22:49:13.001Z,83.82
2023-06-02T22:51:41.482Z,83.63
2023-06-02T22:54:09.778Z,82.49
2023-06-02T22:56:38.184Z,82.09
2023-06-02T22:59:06.492Z,82.61
2023-06-02T23:01:34.917Z,82.41
2023-06-02T23:04:03.359Z,82.66
2023-06-02T23:06:31.602Z,82.54
2023-06-02T23:09:00.092Z,82.42
2023-06-02T23:11:28.518Z,82.09
2023-06-02T23:13:56.836Z,82.27
2023-06-02T23:16:25.215Z,83.54
2023-06-02T23:18:53.567Z,82.85
2023-06-02T23:21:22.197Z,82.39
2023-06-02T23:23:51.904Z,83.79
2023-06-02T23:26:20.453Z,83.19
2023-06-02T23:28:48.861Z,83.22
2023-06-02T23:31:17.083Z,82.86
2023-06-02T23:33:45.471Z,83.23
2023-06-02T23:36:13.793Z,83.12
2023-06-02T23:38:42.131Z,84.07
2023-06-02T23:41:10.551Z,84.62
2023-06-02T23:43:38.946Z,82.76
2023-06-02T23:46:07.230Z,82.89
2023-06-02T23:48:36.747Z,82.77
2023-06-02T23:51:05.402Z,81.80
2023-06-02T23:53:35.114Z,81.79
2023-06-02T23:56:04.024Z,81.35
2023-06-02T23:58:32.476Z,81.51
